createdAt,value
2019-05-13T00:01:17.376Z,5.70
2019-05-13T00:03:45.705Z,7.20
2019-05-13T00:06:14.117Z,5.03
2019-05-13T00:08:44.030Z,5.93
2019-05-13T00:11:13.606Z,6.87
2019-05-13T00:13:44.172Z,7.83
2019-05-13T00:16:14.087Z,7.97
2019-05-13T00:18:44.243Z,6.03
2019-05-13T00:21:13.967Z,11.03
2019-05-13T00:23:44.263Z,8.43
2019-05-13T00:26:14.119Z,7.10
2019-05-13T00:28:44.414Z,8.70
2019-05-13T00:31:13.779Z,9.30
2019-05-13T00:33:44.255Z,6.50
2019-05-13T00:36:14.255Z,7.53
2019-05-13T00:38:43.995Z,9.80
2019-05-13T00:41:14.171Z,5.03
2019-05-13T00:43:44.442Z,7.03
2019-05-13T00:46:14.175Z,6.80
2019-05-13T00:48:43.981Z,5.43
2019-05-13T00:51:14.106Z,4.90
2019-05-13T00:53:44.238Z,5.97
2019-05-13T00:56:13.378Z,6.60
2019-05-13T00:58:43.680Z,6.97
2019-05-13T01:01:13.809Z,7.17
2019-05-13T01:03:44.034Z,6.07
2019-05-13T01:06:13.376Z,5.87
2019-05-13T01:08:44.105Z,4.83
2019-05-13T01:11:13.316Z,3.73
2019-05-13T01:13:43.357Z,5.83
2019-05-13T01:16:13.906Z,3.97
2019-05-13T01:18:43.211Z,2.73
2019-05-13T01:21:13.278Z,3.67
2019-05-13T01:23:43.813Z,6.93
2019-05-13T01:26:13.998Z,3.67
2019-05-13T01:28:43.580Z,2.77
2019-05-13T01:31:13.243Z,2.10
2019-05-13T01:33:41.695Z,5.27
2019-05-13T01:36:10.105Z,3.80
2019-05-13T01:38:38.472Z,5.10
2019-05-13T01:41:06.863Z,3.53
2019-05-13T01:43:35.249Z,5.00
2019-05-13T01:46:04.419Z,6.50
2019-05-13T01:48:33.362Z,4.00
2019-05-13T01:51:03.785Z,3.47
2019-05-13T01:53:33.631Z,2.77
2019-05-13T01:56:03.869Z,2.43
2019-05-13T01:58:33.989Z,2.47
2019-05-13T02:01:04.751Z,2.43
2019-05-13T02:03:33.842Z,4.10
2019-05-13T02:06:03.733Z,2.30
2019-05-13T02:08:33.629Z,2.53
2019-05-13T02:11:04.300Z,3.80
2019-05-13T02:13:34.284Z,2.40
2019-05-13T02:16:04.103Z,3.53
2019-05-13T02:18:34.209Z,2.20
2019-05-13T02:21:05.428Z,2.43
2019-05-13T02:23:33.997Z,3.97
2019-05-13T02:26:04.427Z,2.77
2019-05-13T02:28:33.443Z,1.90
2019-05-13T02:31:02.022Z,2.00
2019-05-13T02:33:33.575Z,1.90
2019-05-13T02:36:02.885Z,1.57
2019-05-13T02:38:34.820Z,2.57
2019-05-13T02:41:02.932Z,1.60
2019-05-13T02:43:33.253Z,2.67
2019-05-13T02:46:03.769Z,2.47
2019-05-13T02:48:33.177Z,2.40
2019-05-13T02:51:03.359Z,2.07
2019-05-13T02:53:33.524Z,7.87
2019-05-13T02:56:02.926Z,2.37
2019-05-13T02:58:33.453Z,2.70
2019-05-13T03:01:03.132Z,2.00
2019-05-13T03:03:32.765Z,2.10
2019-05-13T03:06:02.973Z,2.20
2019-05-13T03:08:44.705Z,3.67
2019-05-13T03:11:02.944Z,2.53
2019-05-13T03:13:32.618Z,3.33
2019-05-13T03:16:19.270Z,2.40
2019-05-13T03:18:47.965Z,2.37
2019-05-13T03:21:16.337Z,2.73
2019-05-13T03:23:44.730Z,5.87
2019-05-13T03:26:13.518Z,2.80
2019-05-13T03:28:43.582Z,4.67
2019-05-13T03:31:16.802Z,3.80
2019-05-13T03:33:46.761Z,3.70
2019-05-13T03:36:16.657Z,4.70
2019-05-13T03:38:59.695Z,3.80
2019-05-13T03:41:12.531Z,3.67
2019-05-13T03:43:43.073Z,3.57
2019-05-13T03:46:12.357Z,3.63
2019-05-13T03:48:42.902Z,2.70
2019-05-13T03:51:13.366Z,4.47
2019-05-13T03:53:43.192Z,4.10
2019-05-13T03:56:12.920Z,4.33
2019-05-13T03:58:43.305Z,6.80
2019-05-13T04:01:13.067Z,2.63
2019-05-13T04:03:43.847Z,2.70
2019-05-13T04:06:13.506Z,3.47
2019-05-13T04:08:43.333Z,4.40
2019-05-13T04:11:12.796Z,3.73
2019-05-13T04:13:42.970Z,4.50
2019-05-13T04:16:12.829Z,5.40
2019-05-13T04:18:42.814Z,3.37
2019-05-13T04:21:13.047Z,3.13
2019-05-13T04:23:42.562Z,5.50
2019-05-13T04:26:14.845Z,4.47
2019-05-13T04:28:43.451Z,3.27
2019-05-13T04:31:14.602Z,4.50
2019-05-13T04:33:42.939Z,5.67
2019-05-13T04:36:13.384Z,4.53
2019-05-13T04:38:44.154Z,5.43
2019-05-13T04:41:12.146Z,4.80
2019-05-13T04:43:43.549Z,4.43
2019-05-13T04:46:14.088Z,6.97
2019-05-13T04:48:44.143Z,7.40
2019-05-13T04:51:13.555Z,10.37
2019-05-13T04:53:42.348Z,5.73
2019-05-13T04:56:13.601Z,4.73
2019-05-13T04:58:42.933Z,5.63
2019-05-13T05:01:32.623Z,5.43
2019-05-13T05:04:37.969Z,7.60
2019-05-13T05:07:36.956Z,9.67
2019-05-13T05:10:38.579Z,7.07
2019-05-13T05:13:21.919Z,9.93
2019-05-13T05:16:07.748Z,9.57
2019-05-13T05:18:47.999Z,8.73
2019-05-13T05:21:41.614Z,12.23
2019-05-13T05:24:18.267Z,4.87
2019-05-13T05:27:07.519Z,5.23
2019-05-13T05:29:47.759Z,6.37
2019-05-13T05:32:28.456Z,7.50
2019-05-13T05:35:09.067Z,3.70
2019-05-13T05:37:46.794Z,6.23
2019-05-13T05:40:28.109Z,9.10
2019-05-13T05:42:45.511Z,12.40
2019-05-13T05:45:13.879Z,5.77
2019-05-13T05:47:42.537Z,3.13
2019-05-13T05:50:12.076Z,7.60
2019-05-13T05:52:42.450Z,4.33
2019-05-13T05:55:11.366Z,6.43
2019-05-13T05:57:41.953Z,7.80
2019-05-13T06:00:12.544Z,6.90
2019-05-13T06:02:44.251Z,8.60
2019-05-13T06:05:12.685Z,6.03
2019-05-13T06:07:42.134Z,4.13
2019-05-13T06:10:11.486Z,4.93
2019-05-13T06:12:42.185Z,5.37
2019-05-13T06:15:12.185Z,7.37
2019-05-13T06:17:41.263Z,6.97
2019-05-13T06:20:13.227Z,6.10
2019-05-13T06:22:42.398Z,5.67
2019-05-13T06:25:14.132Z,4.93
2019-05-13T06:27:42.106Z,6.03
2019-05-13T06:30:12.656Z,8.27
2019-05-13T06:32:41.846Z,8.97
2019-05-13T06:35:11.504Z,7.60
2019-05-13T06:37:41.489Z,4.37
2019-05-13T06:40:12.196Z,8.20
2019-05-13T06:42:41.717Z,6.47
2019-05-13T06:45:12.230Z,4.67
2019-05-13T06:47:41.331Z,6.83
2019-05-13T06:50:11.609Z,6.10
2019-05-13T06:52:42.273Z,12.17
2019-05-13T06:55:11.605Z,6.37
2019-05-13T06:57:42.196Z,6.07
2019-05-13T07:00:12.172Z,4.10
2019-05-13T07:02:42.549Z,6.10
2019-05-13T07:05:11.965Z,6.73
2019-05-13T07:07:42.371Z,5.27
2019-05-13T07:10:12.666Z,9.03
2019-05-13T07:12:41.161Z,6.47
2019-05-13T07:15:11.571Z,6.57
2019-05-13T07:17:41.645Z,6.50
2019-05-13T07:20:11.658Z,10.73
2019-05-13T07:22:42.016Z,8.37
2019-05-13T07:25:11.430Z,6.67
2019-05-13T07:27:42.199Z,5.53
2019-05-13T07:30:11.373Z,12.53
2019-05-13T07:32:42.087Z,7.33
2019-05-13T07:35:14.175Z,8.73
2019-05-13T07:37:42.232Z,13.47
2019-05-13T07:40:11.561Z,8.80
2019-05-13T07:42:41.902Z,15.27
2019-05-13T07:45:12.180Z,8.07
2019-05-13T07:47:41.689Z,11.13
2019-05-13T07:50:12.719Z,11.33
2019-05-13T07:52:42.167Z,8.50
2019-05-13T07:55:12.016Z,5.13
2019-05-13T07:57:42.380Z,10.23
2019-05-13T08:00:12.446Z,7.53
2019-05-13T08:02:41.716Z,7.57
2019-05-13T08:05:12.053Z,6.97
2019-05-13T08:07:42.221Z,7.40
2019-05-13T08:10:11.603Z,14.70
2019-05-13T08:12:41.293Z,11.97
2019-05-13T08:15:11.904Z,9.33
2019-05-13T08:17:46.716Z,12.87
2019-05-13T08:20:11.826Z,10.40
2019-05-13T08:22:42.291Z,8.33
2019-05-13T08:25:12.404Z,17.83
2019-05-13T08:27:42.162Z,9.47
2019-05-13T08:30:11.918Z,12.27
2019-05-13T08:32:41.934Z,9.93
2019-05-13T08:35:12.468Z,12.17
2019-05-13T08:37:41.428Z,7.80
2019-05-13T08:40:12.075Z,9.43
2019-05-13T08:42:41.564Z,8.67
2019-05-13T08:45:12.050Z,10.57
2019-05-13T08:47:41.925Z,13.90
2019-05-13T08:50:11.990Z,12.07
2019-05-13T08:52:42.282Z,13.00
2019-05-13T08:55:15.273Z,10.10
2019-05-13T08:57:41.996Z,15.53
2019-05-13T09:00:13.489Z,13.67
2019-05-13T09:02:42.051Z,11.93
2019-05-13T09:05:12.062Z,10.93
2019-05-13T09:07:41.297Z,12.87
2019-05-13T09:10:12.375Z,16.87
2019-05-13T09:12:43.203Z,9.00
2019-05-13T09:15:11.906Z,16.10
2019-05-13T09:17:42.504Z,14.27
2019-05-13T09:20:11.463Z,14.30
2019-05-13T09:22:41.227Z,18.20
2019-05-13T09:25:12.330Z,14.70
2019-05-13T09:27:42.627Z,11.20
2019-05-13T09:30:11.845Z,15.07
2019-05-13T09:32:42.591Z,14.80
2019-05-13T09:35:12.055Z,15.90
2019-05-13T09:37:42.358Z,15.20
2019-05-13T09:40:11.497Z,16.77
2019-05-13T09:42:49.028Z,19.03
2019-05-13T09:45:12.216Z,9.97
2019-05-13T09:47:41.777Z,16.60
2019-05-13T09:50:25.592Z,20.53
2019-05-13T09:52:43.017Z,10.83
2019-05-13T09:55:24.774Z,13.27
2019-05-13T09:57:47.650Z,12.13
2019-05-13T10:00:16.192Z,14.10
2019-05-13T10:02:44.568Z,16.70
2019-05-13T10:05:12.982Z,14.77
2019-05-13T10:07:42.522Z,12.83
2019-05-13T10:10:12.001Z,10.77
2019-05-13T10:12:42.497Z,12.67
2019-05-13T10:15:12.720Z,12.50
2019-05-13T10:17:42.787Z,13.03
2019-05-13T10:20:12.099Z,14.47
2019-05-13T10:22:41.731Z,13.80
2019-05-13T10:25:13.444Z,12.33
2019-05-13T10:27:42.096Z,15.37
2019-05-13T10:30:11.786Z,13.73
2019-05-13T10:32:42.493Z,14.67
2019-05-13T10:35:10.449Z,15.83
2019-05-13T10:37:41.486Z,14.73
2019-05-13T10:40:09.234Z,11.70
2019-05-13T10:42:38.995Z,20.83
2019-05-13T10:45:07.392Z,13.57
2019-05-13T10:47:35.786Z,14.50
2019-05-13T10:50:06.537Z,12.70
2019-05-13T10:52:34.928Z,17.53
2019-05-13T10:55:03.882Z,15.33
2019-05-13T10:57:32.504Z,15.70
2019-05-13T11:00:03.362Z,17.77
2019-05-13T11:02:32.737Z,12.67
2019-05-13T11:05:03.177Z,13.10
2019-05-13T11:07:32.087Z,14.80
2019-05-13T11:10:02.368Z,17.70
2019-05-13T11:12:33.316Z,9.27
2019-05-13T11:15:02.557Z,17.67
2019-05-13T11:17:31.448Z,14.73
2019-05-13T11:20:03.134Z,13.73
2019-05-13T11:22:32.691Z,10.23
2019-05-13T11:25:01.700Z,10.37
2019-05-13T11:27:32.326Z,9.87
2019-05-13T11:30:05.702Z,10.73
2019-05-13T11:32:31.722Z,8.67
2019-05-13T11:35:01.785Z,12.97
2019-05-13T11:37:31.987Z,14.17
2019-05-13T11:40:02.815Z,9.43
2019-05-13T11:42:32.738Z,11.33
2019-05-13T11:45:00.684Z,13.80
2019-05-13T11:47:29.086Z,9.37
2019-05-13T11:49:57.468Z,10.57
2019-05-13T11:52:25.860Z,7.43
2019-05-13T11:54:54.297Z,9.37
2019-05-13T11:57:22.672Z,7.97
2019-05-13T11:59:52.681Z,9.03
2019-05-13T12:02:23.142Z,8.57
2019-05-13T12:04:53.509Z,8.30
2019-05-13T12:07:23.285Z,8.50
2019-05-13T12:09:51.992Z,5.33
2019-05-13T12:12:23.468Z,4.40
2019-05-13T12:15:21.067Z,8.83
2019-05-13T12:17:22.511Z,7.37
2019-05-13T12:19:54.294Z,7.50
2019-05-13T12:22:22.892Z,6.57
2019-05-13T12:24:52.978Z,10.10
2019-05-13T12:27:21.558Z,7.10
2019-05-13T12:29:52.930Z,9.83
2019-05-13T12:32:22.476Z,14.17
2019-05-13T12:34:52.688Z,9.67
2019-05-13T12:37:22.105Z,20.37
2019-05-13T12:39:53.076Z,13.70
2019-05-13T12:42:22.573Z,8.93
2019-05-13T12:45:03.891Z,7.47
2019-05-13T12:47:22.161Z,6.23
2019-05-13T12:49:50.371Z,10.27
2019-05-13T12:52:18.777Z,9.23
2019-05-13T12:54:47.150Z,6.33
2019-05-13T12:57:16.385Z,11.20
2019-05-13T12:59:44.954Z,7.93
2019-05-13T13:02:13.580Z,8.73
2019-05-13T13:05:07.300Z,8.30
2019-05-13T13:07:13.379Z,8.17
2019-05-13T13:09:43.321Z,8.67
2019-05-13T13:12:11.936Z,7.10
2019-05-13T13:14:44.275Z,9.00
2019-05-13T13:17:12.814Z,12.73
2019-05-13T13:19:41.751Z,6.27
2019-05-13T13:22:13.309Z,10.17
2019-05-13T13:24:48.350Z,7.80
2019-05-13T13:27:18.857Z,7.67
2019-05-13T13:29:43.168Z,7.30
2019-05-13T13:32:13.391Z,10.40
2019-05-13T13:34:44.001Z,10.07
2019-05-13T13:37:10.609Z,8.67
2019-05-13T13:39:42.259Z,7.00
2019-05-13T13:42:12.895Z,8.20
2019-05-13T13:44:39.280Z,9.80
2019-05-13T13:47:07.680Z,7.90
2019-05-13T13:49:36.145Z,7.80
2019-05-13T13:52:04.486Z,18.53
2019-05-13T13:54:33.732Z,15.53
2019-05-13T13:57:02.579Z,4.67
2019-05-13T13:59:35.912Z,6.07
2019-05-13T14:02:05.422Z,7.80
2019-05-13T14:04:31.174Z,4.67
2019-05-13T14:09:29.622Z,6.53
2019-05-13T14:11:58.006Z,6.63
2019-05-13T14:14:26.383Z,4.83
2019-05-13T14:16:54.808Z,2.50
2019-05-13T14:19:23.186Z,9.93
2019-05-13T14:21:52.439Z,2.30
2019-05-13T14:24:21.732Z,2.60
2019-05-13T14:26:52.323Z,2.30
2019-05-13T14:29:22.617Z,5.87
2019-05-13T14:31:51.975Z,5.93
2019-05-13T14:34:20.588Z,8.40
2019-05-13T14:36:48.986Z,13.07
2019-05-13T14:39:17.382Z,5.90
2019-05-13T14:41:45.760Z,6.60
2019-05-13T14:44:14.187Z,6.73
2019-05-13T14:46:47.712Z,11.87
2019-05-13T14:49:12.595Z,5.07
2019-05-13T14:51:41.646Z,3.27
2019-05-13T14:54:10.180Z,5.77
2019-05-13T14:56:38.560Z,6.60
2019-05-13T14:59:06.958Z,5.50
2019-05-13T15:01:35.336Z,7.60
2019-05-13T15:04:03.713Z,3.10
2019-05-13T15:06:32.801Z,9.60
2019-05-13T15:09:01.867Z,8.77
2019-05-13T15:11:32.428Z,5.43
2019-05-13T15:14:02.443Z,8.33
2019-05-13T15:16:31.699Z,10.47
2019-05-13T15:19:01.586Z,4.60
2019-05-13T15:21:32.107Z,7.13
2019-05-13T15:24:02.295Z,4.17
2019-05-13T15:26:30.975Z,4.73
2019-05-13T15:29:02.620Z,5.17
2019-05-13T15:31:31.606Z,7.10
2019-05-13T15:34:02.490Z,4.87
2019-05-13T15:36:31.560Z,10.90
2019-05-13T15:39:01.467Z,16.70
2019-05-13T15:41:30.074Z,6.40
2019-05-13T15:43:58.696Z,6.93
2019-05-13T15:46:27.851Z,8.90
2019-05-13T15:48:56.245Z,7.70
2019-05-13T15:51:24.618Z,8.37
2019-05-13T15:53:53.013Z,4.13
2019-05-13T15:56:22.371Z,5.40
2019-05-13T15:58:52.933Z,5.83
2019-05-13T16:01:22.898Z,4.07
2019-05-13T16:03:52.536Z,4.13
2019-05-13T16:06:21.279Z,5.17
2019-05-13T16:08:51.909Z,4.90
2019-05-13T16:11:21.733Z,6.30
2019-05-13T16:13:51.850Z,4.57
2019-05-13T16:16:21.991Z,2.97
2019-05-13T16:18:51.421Z,3.17
2019-05-13T16:21:19.835Z,5.10
2019-05-13T16:23:48.212Z,5.57
2019-05-13T16:26:16.589Z,5.17
2019-05-13T16:28:45.026Z,9.83
2019-05-13T16:31:13.432Z,4.63
2019-05-13T16:33:41.912Z,6.67
2019-05-13T16:36:12.715Z,5.93
2019-05-13T16:38:41.728Z,4.50
2019-05-13T16:41:12.401Z,4.97
2019-05-13T16:43:42.503Z,3.87
2019-05-13T16:46:12.135Z,5.83
2019-05-13T16:48:41.590Z,4.90
2019-05-13T16:51:12.406Z,12.50
2019-05-13T16:53:42.147Z,5.37
2019-05-13T16:56:25.411Z,3.30
2019-05-13T16:58:41.753Z,5.33
2019-05-13T17:01:11.847Z,5.30
2019-05-13T17:03:41.386Z,4.60
2019-05-13T17:06:12.486Z,6.17
2019-05-13T17:08:42.208Z,5.10
2019-05-13T17:11:11.903Z,6.30
2019-05-13T17:13:42.145Z,7.40
2019-05-13T17:16:10.732Z,6.07
2019-05-13T17:18:41.501Z,6.27
2019-05-13T17:21:09.162Z,6.43
2019-05-13T17:23:37.553Z,6.30
2019-05-13T17:26:06.621Z,6.07
2019-05-13T17:28:35.007Z,8.67
2019-05-13T17:31:03.468Z,5.50
2019-05-13T17:33:32.042Z,5.80
2019-05-13T17:36:01.973Z,6.53
2019-05-13T17:38:32.377Z,7.40
2019-05-13T17:41:02.146Z,29.33
2019-05-13T17:43:31.957Z,10.10
2019-05-13T17:46:00.674Z,4.27
2019-05-13T17:48:32.032Z,5.93
2019-05-13T17:51:01.130Z,6.37
2019-05-13T17:53:29.132Z,3.70
2019-05-13T17:55:57.579Z,6.10
2019-05-13T17:58:25.961Z,5.43
2019-05-13T18:00:54.328Z,5.07
2019-05-13T18:03:22.704Z,9.57
2019-05-13T18:05:51.471Z,5.57
2019-05-13T18:08:19.974Z,6.17
2019-05-13T18:10:48.370Z,5.33
2019-05-13T18:13:16.750Z,6.73
2019-05-13T18:15:45.202Z,6.57
2019-05-13T18:18:13.618Z,7.53
2019-05-13T18:20:41.994Z,10.90
2019-05-13T18:23:12.170Z,6.27
2019-05-13T18:25:42.213Z,6.60
2019-05-13T18:28:27.082Z,5.93
2019-05-13T18:30:41.011Z,6.63
2019-05-13T18:33:11.630Z,5.73
2019-05-13T18:35:41.710Z,7.30
2019-05-13T18:38:11.757Z,7.10
2019-05-13T18:40:41.789Z,6.93
2019-05-13T18:43:09.692Z,9.07
2019-05-13T18:45:38.070Z,8.33
2019-05-13T18:48:06.478Z,6.10
2019-05-13T18:50:34.842Z,5.73
2019-05-13T18:53:03.221Z,8.03
2019-05-13T18:55:31.633Z,4.23
2019-05-13T18:58:01.091Z,4.43
2019-05-13T19:00:29.612Z,6.27
2019-05-13T19:02:57.998Z,7.60
2019-05-13T19:05:27.233Z,3.90
2019-05-13T19:07:58.558Z,5.63
2019-05-13T19:10:26.926Z,9.53
2019-05-13T19:12:57.775Z,7.70
2019-05-13T19:15:25.376Z,4.43
2019-05-13T19:17:53.748Z,6.00
2019-05-13T19:20:22.134Z,8.70
2019-05-13T19:22:51.799Z,5.47
2019-05-13T19:25:20.306Z,5.60
2019-05-13T19:27:48.678Z,5.07
2019-05-13T19:30:17.110Z,5.30
2019-05-13T19:32:45.483Z,4.67
2019-05-13T19:35:15.462Z,4.33
2019-05-13T19:37:44.036Z,5.23
2019-05-13T19:40:12.913Z,11.40
2019-05-13T19:42:41.963Z,10.67
2019-05-13T19:45:10.506Z,9.27
2019-05-13T19:47:38.896Z,7.77
2019-05-13T19:50:07.342Z,8.57
2019-05-13T19:52:35.744Z,10.93
2019-05-13T19:55:06.502Z,8.13
2019-05-13T19:57:34.893Z,11.07
2019-05-13T20:00:09.231Z,14.33
2019-05-13T20:02:34.526Z,12.10
2019-05-13T20:05:02.912Z,16.40
2019-05-13T20:07:31.821Z,12.63
2019-05-13T20:10:02.805Z,13.03
2019-05-13T20:12:31.263Z,17.60
2019-05-13T20:15:01.425Z,14.63
2019-05-13T20:17:31.964Z,24.53
2019-05-13T20:20:01.860Z,22.20
2019-05-13T20:22:31.324Z,23.63
2019-05-13T20:24:59.864Z,21.97
2019-05-13T20:27:28.278Z,30.67
2019-05-13T20:29:56.658Z,28.33
2019-05-13T20:32:25.319Z,34.83
2019-05-13T20:34:53.800Z,25.87
2019-05-13T20:37:22.185Z,28.97
2019-05-13T20:39:51.507Z,21.77
2019-05-13T20:42:19.980Z,25.13
2019-05-13T20:44:48.439Z,25.30
2019-05-13T20:47:16.892Z,21.63
2019-05-13T20:49:58.180Z,29.13
2019-05-13T20:52:15.544Z,33.90
2019-05-13T20:54:44.185Z,26.07
2019-05-13T20:57:12.512Z,26.43
2019-05-13T20:59:41.478Z,29.93
2019-05-13T21:02:12.195Z,27.27
2019-05-13T21:04:40.042Z,31.10
2019-05-13T21:07:08.415Z,33.73
2019-05-13T21:09:36.917Z,32.47
2019-05-13T21:12:05.318Z,34.23
2019-05-13T21:14:33.693Z,35.37
2019-05-13T21:17:02.122Z,33.20
2019-05-13T21:19:39.319Z,23.40
2019-05-13T21:22:00.622Z,22.27
2019-05-13T21:24:29.056Z,17.33
2019-05-13T21:26:57.458Z,16.57
2019-05-13T21:29:25.848Z,18.10
2019-05-13T21:31:54.260Z,14.40
2019-05-13T21:34:22.632Z,16.57
2019-05-13T21:36:51.772Z,16.43
2019-05-13T21:39:21.416Z,14.07
2019-05-13T21:41:51.879Z,12.00
2019-05-13T21:44:19.960Z,19.13
2019-05-13T21:46:48.374Z,13.57
2019-05-13T21:49:17.533Z,11.37
2019-05-13T21:51:46.062Z,7.87
2019-05-13T21:54:14.478Z,9.37
2019-05-13T21:56:42.868Z,9.27
2019-05-13T21:59:11.228Z,8.00
2019-05-13T22:01:42.059Z,8.17
2019-05-13T22:04:12.142Z,8.53
2019-05-13T22:06:39.672Z,6.77
2019-05-13T22:09:11.717Z,9.93
2019-05-13T22:11:41.796Z,6.80
2019-05-13T22:14:11.299Z,6.53
2019-05-13T22:16:41.323Z,4.93
2019-05-13T22:19:12.022Z,7.30
2019-05-13T22:21:42.133Z,5.33
2019-05-13T22:24:11.576Z,7.10
2019-05-13T22:26:41.991Z,7.40
2019-05-13T22:29:10.338Z,5.50
2019-05-13T22:31:38.724Z,9.43
2019-05-13T22:34:07.096Z,5.70
2019-05-13T22:36:35.576Z,7.20
2019-05-13T22:39:05.293Z,6.77
2019-05-13T22:41:33.666Z,5.73
2019-05-13T22:44:02.097Z,5.30
2019-05-13T22:46:32.246Z,4.30
2019-05-13T22:49:01.159Z,5.87
2019-05-13T22:51:31.828Z,6.37
2019-05-13T22:53:59.750Z,6.87
2019-05-13T22:56:28.136Z,6.70
2019-05-13T22:58:56.590Z,7.53
2019-05-13T23:01:24.968Z,12.33
2019-05-13T23:03:53.385Z,6.03
2019-05-13T23:06:21.770Z,6.47
2019-05-13T23:08:50.137Z,5.10
2019-05-13T23:11:18.565Z,8.13
2019-05-13T23:13:46.952Z,6.07
2019-05-13T23:16:15.328Z,7.30
2019-05-13T23:18:43.752Z,5.93
2019-05-13T23:21:12.120Z,6.13
2019-05-13T23:23:40.569Z,9.30
2019-05-13T23:26:08.983Z,8.60
2019-05-13T23:28:37.359Z,9.60
2019-05-13T23:31:05.736Z,6.63
2019-05-13T23:33:34.162Z,8.13
2019-05-13T23:36:02.516Z,6.27
2019-05-13T23:38:31.898Z,7.13
2019-05-13T23:41:02.151Z,11.93
2019-05-13T23:43:31.102Z,7.87
2019-05-13T23:46:01.196Z,7.43
2019-05-13T23:48:31.858Z,8.27
2019-05-13T23:51:01.313Z,8.97
2019-05-13T23:53:31.557Z,8.67
2019-05-13T23:56:01.931Z,7.40
2019-05-13T23:58:32.148Z,8.77
